createdAt,value
2016-09-02T00:00:27.218Z,13.74
2016-09-02T00:01:26.359Z,13.79
2016-09-02T00:02:26.338Z,13.7
2016-09-02T00:03:26.363Z,13.73
2016-09-02T00:04:26.349Z,13.77
2016-09-02T00:05:26.409Z,13.73
2016-09-02T00:06:26.371Z,13.69
2016-09-02T00:07:26.365Z,13.73
2016-09-02T00:08:26.371Z,13.71
2016-09-02T00:09:26.376Z,13.73
2016-09-02T00:10:26.355Z,13.76
2016-09-02T00:11:26.365Z,13.69
2016-09-02T00:12:26.369Z,13.7
2016-09-02T00:13:26.405Z,13.71
2016-09-02T00:14:26.396Z,13.52
2016-09-02T00:15:26.390Z,13.76
2016-09-02T00:16:26.380Z,13.65
2016-09-02T00:17:26.520Z,13.59
2016-09-02T00:18:26.425Z,13.59
2016-09-02T00:19:26.463Z,13.67
2016-09-02T00:20:26.350Z,13.54
2016-09-02T00:21:26.402Z,13.62
2016-09-02T00:22:31.461Z,13.69
2016-09-02T00:23:26.342Z,13.58
2016-09-02T00:24:26.605Z,13.58
2016-09-02T00:25:26.587Z,13.65
2016-09-02T00:26:26.864Z,13.54
2016-09-02T00:27:26.972Z,13.59
2016-09-02T00:28:26.674Z,13.59
2016-09-02T00:29:26.669Z,13.67
2016-09-02T00:30:26.936Z,13.52
2016-09-02T00:31:26.802Z,13.61
2016-09-02T00:32:26.733Z,13.54
2016-09-02T00:33:26.370Z,13.58
2016-09-02T00:34:26.592Z,13.55
2016-09-02T00:35:26.388Z,13.55
2016-09-02T00:36:26.352Z,13.58
2016-09-02T00:37:26.387Z,13.62
2016-09-02T00:38:26.573Z,13.51
2016-09-02T00:39:26.372Z,13.56
2016-09-02T00:40:26.364Z,13.51
2016-09-02T00:41:26.388Z,13.54
2016-09-02T00:42:26.365Z,13.52
2016-09-02T00:43:26.400Z,13.49
2016-09-02T00:44:26.397Z,13.47
2016-09-02T00:45:26.391Z,13.51
2016-09-02T00:46:26.460Z,13.46
2016-09-02T00:47:26.354Z,13.4
2016-09-02T00:48:26.378Z,13.44
2016-09-02T00:49:26.397Z,13.44
2016-09-02T00:50:26.399Z,13.3
2016-09-02T00:51:26.454Z,13.32
2016-09-02T00:52:26.371Z,13.15
2016-09-02T00:53:26.456Z,13.32
2016-09-02T00:54:26.388Z,13.18
2016-09-02T00:55:26.410Z,13.17
2016-09-02T00:56:26.401Z,13.21
2016-09-02T00:57:26.435Z,13.25
2016-09-02T00:58:26.427Z,13.29
2016-09-02T00:59:26.422Z,13.27
2016-09-02T01:00:26.459Z,13.17
2016-09-02T01:01:26.433Z,13.07
2016-09-02T01:02:26.485Z,13.18
2016-09-02T01:03:26.450Z,13.15
2016-09-02T01:04:26.427Z,13.21
2016-09-02T01:05:26.415Z,13.02
2016-09-02T01:06:26.388Z,13.2
2016-09-02T01:07:26.420Z,13.2
2016-09-02T01:08:26.492Z,13.21
2016-09-02T01:09:26.406Z,13.18
2016-09-02T01:10:26.404Z,13.11
2016-09-02T01:11:26.462Z,13.11
2016-09-02T01:12:26.419Z,13.17
2016-09-02T01:13:26.399Z,13.15
2016-09-02T01:14:26.418Z,13.2
2016-09-02T01:15:26.447Z,13.18
2016-09-02T01:16:26.421Z,13.18
2016-09-02T01:17:26.404Z,13.18
2016-09-02T01:18:26.407Z,13.12
2016-09-02T01:19:26.370Z,13.14
2016-09-02T01:20:26.429Z,13.2
2016-09-02T01:21:26.416Z,13.14
2016-09-02T01:22:26.419Z,13.03
2016-09-02T01:23:26.434Z,13.15
2016-09-02T01:24:26.380Z,13.25
2016-09-02T01:25:26.851Z,13.15
2016-09-02T01:26:26.708Z,13.17
2016-09-02T01:27:26.869Z,13.17
2016-09-02T01:28:26.879Z,13.07
2016-09-02T01:29:26.982Z,13.03
2016-09-02T01:30:26.765Z,13.15
2016-09-02T01:31:26.416Z,13.12
2016-09-02T01:32:26.431Z,13.09
2016-09-02T01:33:26.431Z,12.99
2016-09-02T01:34:26.410Z,13.03
2016-09-02T01:35:26.567Z,13.02
2016-09-02T01:36:26.429Z,13.06
2016-09-02T01:37:26.401Z,12.95
2016-09-02T01:38:26.746Z,13.03
2016-09-02T01:39:26.536Z,13.03
2016-09-02T01:40:26.477Z,12.96
2016-09-02T01:41:26.418Z,13.03
2016-09-02T01:42:26.436Z,13.09
2016-09-02T01:43:26.431Z,13.03
2016-09-02T01:44:26.414Z,13
2016-09-02T01:45:26.418Z,12.99
2016-09-02T01:46:26.447Z,12.92
2016-09-02T01:47:26.418Z,13.03
2016-09-02T01:48:26.430Z,12.96
2016-09-02T01:49:26.418Z,13.15
2016-09-02T01:50:26.483Z,13.02
2016-09-02T01:51:26.431Z,13.03
2016-09-02T01:52:26.449Z,13.09
2016-09-02T01:53:26.433Z,13.04
2016-09-02T01:54:26.433Z,13.06
2016-09-02T01:55:26.589Z,13.03
2016-09-02T01:56:26.420Z,13.02
2016-09-02T01:57:26.427Z,13.11
2016-09-02T01:58:26.434Z,12.96
2016-09-02T01:59:26.410Z,13.04
2016-09-02T02:00:26.438Z,13
2016-09-02T02:01:26.414Z,13.11
2016-09-02T02:02:26.420Z,13.02
2016-09-02T02:03:26.449Z,13.04
2016-09-02T02:04:26.446Z,13
2016-09-02T02:05:26.433Z,12.97
2016-09-02T02:06:26.434Z,12.88
2016-09-02T02:07:26.438Z,12.89
2016-09-02T02:08:26.454Z,12.88
2016-09-02T02:09:26.438Z,12.96
2016-09-02T02:10:26.445Z,12.93
2016-09-02T02:11:26.466Z,12.92
2016-09-02T02:12:26.437Z,12.93
2016-09-02T02:13:26.485Z,12.82
2016-09-02T02:14:26.461Z,12.84
2016-09-02T02:15:26.469Z,12.81
2016-09-02T02:16:26.485Z,12.95
2016-09-02T02:17:26.470Z,12.78
2016-09-02T02:18:26.449Z,12.74
2016-09-02T02:19:26.456Z,12.75
2016-09-02T02:20:26.431Z,12.78
2016-09-02T02:21:26.453Z,12.69
2016-09-02T02:22:26.444Z,12.7
2016-09-02T02:23:26.467Z,12.77
2016-09-02T02:24:26.463Z,12.66
2016-09-02T02:25:26.451Z,12.69
2016-09-02T02:26:26.443Z,12.7
2016-09-02T02:27:26.436Z,12.7
2016-09-02T02:28:26.447Z,12.57
2016-09-02T02:29:26.452Z,12.75
2016-09-02T02:30:26.472Z,12.7
2016-09-02T02:31:26.449Z,12.63
2016-09-02T02:32:26.453Z,12.7
2016-09-02T02:33:26.447Z,12.67
2016-09-02T02:34:26.463Z,12.77
2016-09-02T02:35:26.483Z,12.82
2016-09-02T02:36:26.510Z,12.7
2016-09-02T02:37:26.502Z,12.74
2016-09-02T02:38:26.477Z,12.74
2016-09-02T02:39:26.501Z,12.75
2016-09-02T02:40:26.491Z,12.74
2016-09-02T02:41:26.452Z,12.7
2016-09-02T02:42:26.457Z,12.7
2016-09-02T02:43:26.469Z,12.74
2016-09-02T02:44:26.482Z,12.77
2016-09-02T02:45:26.481Z,12.81
2016-09-02T02:46:26.528Z,12.69
2016-09-02T02:47:26.606Z,12.84
2016-09-02T02:48:26.465Z,12.85
2016-09-02T02:49:26.500Z,12.75
2016-09-02T02:50:26.481Z,12.93
2016-09-02T02:51:26.473Z,12.79
2016-09-02T02:52:26.478Z,12.89
2016-09-02T02:53:26.495Z,12.85
2016-09-02T02:54:26.478Z,12.78
2016-09-02T02:55:26.496Z,12.89
2016-09-02T02:56:26.956Z,12.79
2016-09-02T02:57:26.496Z,12.77
2016-09-02T02:58:26.826Z,12.77
2016-09-02T02:59:26.861Z,12.93
2016-09-02T03:00:26.945Z,12.79
2016-09-02T03:01:26.911Z,12.79
2016-09-02T03:02:26.917Z,12.84
2016-09-02T03:03:26.631Z,12.88
2016-09-02T03:04:26.534Z,12.75
2016-09-02T03:05:26.495Z,12.93
2016-09-02T03:06:26.500Z,12.85
2016-09-02T03:07:26.491Z,12.77
2016-09-02T03:08:26.479Z,12.82
2016-09-02T03:09:26.478Z,12.79
2016-09-02T03:10:26.484Z,12.82
2016-09-02T03:11:26.561Z,12.81
2016-09-02T03:12:26.496Z,12.99
2016-09-02T03:13:26.487Z,12.87
2016-09-02T03:14:26.480Z,12.96
2016-09-02T03:15:26.498Z,12.84
2016-09-02T03:16:26.575Z,12.89
2016-09-02T03:17:26.485Z,12.96
2016-09-02T03:18:26.498Z,12.97
2016-09-02T03:19:26.485Z,12.99
2016-09-02T03:20:26.626Z,12.88
2016-09-02T03:21:26.499Z,12.88
2016-09-02T03:22:26.511Z,13.04
2016-09-02T03:23:26.472Z,13
2016-09-02T03:24:26.876Z,12.99
2016-09-02T03:25:26.526Z,12.84
2016-09-02T03:26:26.516Z,12.99
2016-09-02T03:27:26.524Z,12.93
2016-09-02T03:28:26.525Z,13
2016-09-02T03:29:26.499Z,13
2016-09-02T03:30:26.522Z,12.92
2016-09-02T03:31:26.496Z,12.93
2016-09-02T03:32:26.522Z,12.87
2016-09-02T03:33:26.547Z,12.82
2016-09-02T03:34:26.532Z,12.93
2016-09-02T03:35:26.478Z,12.88
2016-09-02T03:36:26.500Z,12.97
2016-09-02T03:37:26.516Z,12.84
2016-09-02T03:38:26.513Z,12.88
2016-09-02T03:39:26.504Z,12.88
2016-09-02T03:40:26.498Z,12.89
2016-09-02T03:41:26.529Z,12.82
2016-09-02T03:42:26.526Z,12.84
2016-09-02T03:43:26.517Z,12.78
2016-09-02T03:44:26.531Z,12.81
2016-09-02T03:45:26.531Z,12.7
2016-09-02T03:46:26.555Z,12.7
2016-09-02T03:47:26.515Z,12.78
2016-09-02T03:48:26.545Z,12.75
2016-09-02T03:49:26.516Z,12.82
2016-09-02T03:50:26.534Z,12.78
2016-09-02T03:51:26.527Z,12.78
2016-09-02T03:52:26.499Z,12.77
2016-09-02T03:53:26.524Z,12.67
2016-09-02T03:54:26.520Z,12.7
2016-09-02T03:55:26.558Z,12.66
2016-09-02T03:56:26.576Z,12.77
2016-09-02T03:57:26.574Z,12.74
2016-09-02T03:58:26.548Z,12.57
2016-09-02T03:59:26.562Z,12.74
2016-09-02T04:00:26.590Z,12.64
2016-09-02T04:01:26.523Z,12.62
2016-09-02T04:02:26.534Z,12.54
2016-09-02T04:03:26.529Z,12.54
2016-09-02T04:04:26.539Z,12.63
2016-09-02T04:05:26.530Z,12.63
2016-09-02T04:06:26.559Z,12.44
2016-09-02T04:07:26.522Z,12.59
2016-09-02T04:08:26.540Z,12.69
2016-09-02T04:09:26.546Z,12.59
2016-09-02T04:10:26.534Z,12.51
2016-09-02T04:11:26.617Z,12.62
2016-09-02T04:12:26.536Z,12.42
2016-09-02T04:13:26.570Z,12.51
2016-09-02T04:14:26.567Z,12.51
2016-09-02T04:15:26.530Z,12.49
2016-09-02T04:16:26.550Z,12.56
2016-09-02T04:17:26.557Z,12.46
2016-09-02T04:18:26.518Z,12.52
2016-09-02T04:19:26.583Z,12.56
2016-09-02T04:20:26.544Z,12.44
2016-09-02T04:21:26.563Z,12.45
2016-09-02T04:22:26.613Z,12.44
2016-09-02T04:23:26.550Z,12.42
2016-09-02T04:24:26.571Z,12.64
2016-09-02T04:25:26.548Z,12.54
2016-09-02T04:26:26.591Z,12.6
2016-09-02T04:27:26.606Z,12.44
2016-09-02T04:28:26.564Z,12.6
2016-09-02T04:29:26.569Z,12.49
2016-09-02T04:30:26.581Z,12.56
2016-09-02T04:31:26.573Z,12.48
2016-09-02T04:32:26.578Z,12.67
2016-09-02T04:33:26.568Z,12.57
2016-09-02T04:34:26.575Z,12.63
2016-09-02T04:35:26.574Z,12.66
2016-09-02T04:36:26.566Z,12.69
2016-09-02T04:37:26.548Z,12.7
2016-09-02T04:38:26.567Z,12.63
2016-09-02T04:39:26.581Z,12.6
2016-09-02T04:40:26.576Z,12.75
2016-09-02T04:41:26.582Z,12.63
2016-09-02T04:42:26.579Z,12.66
2016-09-02T04:43:26.566Z,12.77
2016-09-02T04:44:26.566Z,12.62
2016-09-02T04:45:26.574Z,12.78
2016-09-02T04:46:26.627Z,12.63
2016-09-02T04:47:26.579Z,12.67
2016-09-02T04:48:26.572Z,12.7
2016-09-02T04:49:26.564Z,12.7
2016-09-02T04:50:26.572Z,12.6
2016-09-02T04:51:26.585Z,12.56
2016-09-02T04:52:26.593Z,12.77
2016-09-02T04:53:26.606Z,12.64
2016-09-02T04:54:26.624Z,12.62
2016-09-02T04:55:26.636Z,12.63
2016-09-02T04:56:26.634Z,12.69
2016-09-02T04:57:26.625Z,12.59
2016-09-02T04:58:26.643Z,12.71
2016-09-02T04:59:26.582Z,12.59
2016-09-02T05:00:27.057Z,12.6
2016-09-02T05:01:26.770Z,12.67
2016-09-02T05:02:26.965Z,12.51
2016-09-02T05:03:27.164Z,12.64
2016-09-02T05:04:26.595Z,12.69
2016-09-02T05:05:26.652Z,12.75
2016-09-02T05:06:26.593Z,12.67
2016-09-02T05:07:26.674Z,12.67
2016-09-02T05:08:26.594Z,12.77
2016-09-02T05:09:26.614Z,12.59
2016-09-02T05:10:26.697Z,12.7
2016-09-02T05:11:26.687Z,12.6
2016-09-02T05:12:26.603Z,12.64
2016-09-02T05:13:26.580Z,12.75
2016-09-02T05:14:26.611Z,12.82
2016-09-02T05:15:26.607Z,12.77
2016-09-02T05:16:26.600Z,12.74
2016-09-02T05:17:26.579Z,12.87
2016-09-02T05:18:26.600Z,12.93
2016-09-02T05:19:26.591Z,12.67
2016-09-02T05:20:26.611Z,12.82
2016-09-02T05:21:26.608Z,12.78
2016-09-02T05:22:26.628Z,12.81
2016-09-02T05:23:26.608Z,12.74
2016-09-02T05:24:26.626Z,12.88
2016-09-02T05:25:26.807Z,12.78
2016-09-02T05:26:26.629Z,12.79
2016-09-02T05:27:26.658Z,12.79
2016-09-02T05:28:26.637Z,12.87
2016-09-02T05:29:26.642Z,12.89
2016-09-02T05:30:26.649Z,12.81
2016-09-02T05:31:26.744Z,12.87
2016-09-02T05:32:26.662Z,12.95
2016-09-02T05:33:26.628Z,12.84
2016-09-02T05:34:26.910Z,12.99
2016-09-02T05:35:26.947Z,12.99
2016-09-02T05:36:26.673Z,13.11
2016-09-02T05:37:26.632Z,13.25
2016-09-02T05:38:26.644Z,13.14
2016-09-02T05:39:26.712Z,13.29
2016-09-02T05:40:27.170Z,13.3
2016-09-02T05:41:26.665Z,13.32
2016-09-02T05:42:26.688Z,13.44
2016-09-02T05:43:29.178Z,13.54
2016-09-02T05:44:26.820Z,13.59
2016-09-02T05:45:26.631Z,13.63
2016-09-02T05:46:26.667Z,13.69
2016-09-02T05:47:26.614Z,13.65
2016-09-02T05:48:26.605Z,13.65
2016-09-02T05:49:26.622Z,13.79
2016-09-02T05:50:26.591Z,13.83
2016-09-02T05:51:26.614Z,13.89
2016-09-02T05:52:26.646Z,13.88
2016-09-02T05:53:26.610Z,13.99
2016-09-02T05:54:27.044Z,14.01
2016-09-02T05:55:27.271Z,14.02
2016-09-02T05:56:26.659Z,14.17
2016-09-02T05:57:26.625Z,14.16
2016-09-02T05:58:41.431Z,14.17
2016-09-02T05:59:26.883Z,14.27
2016-09-02T06:00:26.905Z,14.29
2016-09-02T06:01:27.014Z,14.21
2016-09-02T06:02:27.123Z,14.43
2016-09-02T06:03:27.129Z,14.29
2016-09-02T06:04:26.896Z,14.46
2016-09-02T06:05:26.979Z,14.44
2016-09-02T06:06:26.656Z,14.53
2016-09-02T06:07:26.658Z,14.57
2016-09-02T06:08:26.683Z,14.57
2016-09-02T06:09:26.802Z,14.53
2016-09-02T06:10:26.650Z,14.49
2016-09-02T06:11:26.634Z,14.61
2016-09-02T06:12:26.644Z,14.62
2016-09-02T06:13:26.656Z,14.61
2016-09-02T06:14:26.661Z,14.65
2016-09-02T06:15:26.655Z,14.8
2016-09-02T06:16:26.646Z,14.68
2016-09-02T06:17:26.641Z,14.71
2016-09-02T06:18:26.643Z,14.87
2016-09-02T06:19:26.630Z,14.86
2016-09-02T06:20:26.671Z,14.9
2016-09-02T06:21:26.657Z,14.98
2016-09-02T06:22:26.660Z,15.11
2016-09-02T06:23:26.671Z,15.19
2016-09-02T06:24:26.680Z,15.23
2016-09-02T06:25:26.943Z,15.31
2016-09-02T06:26:26.695Z,15.33
2016-09-02T06:27:26.662Z,15.41
2016-09-02T06:28:26.705Z,15.49
2016-09-02T06:29:27.102Z,15.64
2016-09-02T06:30:26.644Z,15.6
2016-09-02T06:31:26.683Z,15.75
2016-09-02T06:32:26.662Z,15.78
2016-09-02T06:33:26.680Z,15.82
2016-09-02T06:34:26.663Z,15.92
2016-09-02T06:35:26.666Z,16.12
2016-09-02T06:36:26.641Z,16.03
2016-09-02T06:37:26.678Z,16.3
2016-09-02T06:38:26.656Z,16.42
2016-09-02T06:39:26.691Z,16.42
2016-09-02T06:40:26.684Z,16.52
2016-09-02T06:41:26.720Z,16.56
2016-09-02T06:42:26.663Z,16.73
2016-09-02T06:43:26.693Z,16.85
2016-09-02T06:44:26.724Z,16.89
2016-09-02T06:45:26.733Z,16.96
2016-09-02T06:46:26.771Z,17.06
2016-09-02T06:47:26.734Z,17.04
2016-09-02T06:48:26.690Z,17.18
2016-09-02T06:49:26.681Z,17.22
2016-09-02T06:50:27.094Z,17.28
2016-09-02T06:51:26.689Z,17.41
2016-09-02T06:52:26.686Z,17.32
2016-09-02T06:53:26.688Z,17.54
2016-09-02T06:54:26.690Z,17.64
2016-09-02T06:55:26.725Z,17.66
2016-09-02T06:56:26.693Z,17.63
2016-09-02T06:57:26.667Z,17.67
2016-09-02T06:58:26.680Z,17.73
2016-09-02T06:59:26.705Z,17.64
2016-09-02T07:00:27.369Z,17.82
2016-09-02T07:01:26.704Z,17.79
2016-09-02T07:02:26.689Z,17.82
2016-09-02T07:03:26.766Z,17.97
2016-09-02T07:04:26.677Z,17.99
2016-09-02T07:05:26.705Z,17.89
2016-09-02T07:06:26.689Z,17.97
2016-09-02T07:07:26.703Z,18.03
2016-09-02T07:08:26.696Z,18.18
2016-09-02T07:09:26.672Z,18.1
2016-09-02T07:10:26.709Z,18.21
2016-09-02T07:11:26.676Z,18.22
2016-09-02T07:12:26.706Z,18.28
2016-09-02T07:13:26.749Z,18.4
2016-09-02T07:14:26.722Z,18.39
2016-09-02T07:15:26.735Z,18.43
2016-09-02T07:16:26.794Z,18.49
2016-09-02T07:17:26.702Z,18.61
2016-09-02T07:18:26.724Z,18.62
2016-09-02T07:19:26.718Z,18.62
2016-09-02T07:20:26.764Z,18.76
2016-09-02T07:21:26.732Z,18.83
2016-09-02T07:22:26.707Z,18.86
2016-09-02T07:23:26.731Z,18.97
2016-09-02T07:24:26.721Z,19.02
2016-09-02T07:25:26.742Z,19.13
2016-09-02T07:26:26.707Z,19.15
2016-09-02T07:27:26.706Z,19.28
2016-09-02T07:28:26.689Z,19.18
2016-09-02T07:29:26.758Z,19.28
2016-09-02T07:30:26.717Z,19.25
2016-09-02T07:31:26.709Z,19.47
2016-09-02T07:32:26.719Z,19.5
2016-09-02T07:33:26.814Z,19.53
2016-09-02T07:34:26.755Z,19.4
2016-09-02T07:35:28.101Z,19.54
2016-09-02T07:36:26.742Z,19.55
2016-09-02T07:37:26.730Z,19.7
2016-09-02T07:38:26.751Z,19.66
2016-09-02T07:39:26.709Z,19.72
2016-09-02T07:40:26.737Z,19.76
2016-09-02T07:41:26.704Z,19.86
2016-09-02T07:42:26.739Z,19.88
2016-09-02T07:43:26.735Z,19.95
2016-09-02T07:44:26.754Z,20.02
2016-09-02T07:45:26.688Z,19.9
2016-09-02T07:46:26.781Z,20.06
2016-09-02T07:47:26.737Z,20.27
2016-09-02T07:48:26.727Z,20.39
2016-09-02T07:49:26.812Z,20.43
2016-09-02T07:50:26.771Z,20.56
2016-09-02T07:51:26.734Z,20.62
2016-09-02T07:52:26.727Z,20.74
2016-09-02T07:53:26.732Z,20.76
2016-09-02T07:54:26.710Z,20.79
2016-09-02T07:55:26.760Z,20.93
2016-09-02T07:56:26.751Z,20.96
2016-09-02T07:57:26.807Z,21.02
2016-09-02T07:58:26.765Z,21.26
2016-09-02T07:59:26.925Z,21.29
2016-09-02T08:00:26.767Z,21.3
2016-09-02T08:01:27.047Z,21.36
2016-09-02T08:02:27.369Z,21.34
2016-09-02T08:03:27.574Z,21.27
2016-09-02T08:04:26.770Z,21.44
2016-09-02T08:05:27.027Z,21.41
2016-09-02T08:06:26.838Z,21.35
2016-09-02T08:07:27.095Z,21.44
2016-09-02T08:08:26.787Z,21.35
2016-09-02T08:09:26.760Z,21.45
2016-09-02T08:10:26.800Z,21.44
2016-09-02T08:11:26.753Z,21.44
2016-09-02T08:12:26.774Z,21.42
2016-09-02T08:13:26.753Z,21.35
2016-09-02T08:14:26.788Z,21.57
2016-09-02T08:15:26.746Z,21.61
2016-09-02T08:16:26.764Z,21.61
2016-09-02T08:17:26.739Z,21.64
2016-09-02T08:18:26.753Z,21.66
2016-09-02T08:19:26.765Z,21.57
2016-09-02T08:20:27.142Z,21.79
2016-09-02T08:21:26.753Z,21.83
2016-09-02T08:22:26.760Z,21.79
2016-09-02T08:23:26.791Z,21.85
2016-09-02T08:24:26.746Z,21.85
2016-09-02T08:25:27.143Z,21.83
2016-09-02T08:26:26.807Z,21.82
2016-09-02T08:27:26.758Z,21.83
2016-09-02T08:28:26.789Z,21.87
2016-09-02T08:29:26.766Z,21.87
2016-09-02T08:30:26.790Z,21.97
2016-09-02T08:31:26.774Z,21.85
2016-09-02T08:32:26.828Z,22.02
2016-09-02T08:33:26.789Z,22.06
2016-09-02T08:34:26.810Z,22.07
2016-09-02T08:35:26.782Z,22.12
2016-09-02T08:36:26.798Z,22.06
2016-09-02T08:37:26.800Z,22.13
2016-09-02T08:38:26.833Z,22.07
2016-09-02T08:39:26.819Z,22.17
2016-09-02T08:40:26.818Z,22.28
2016-09-02T08:41:26.790Z,22.22
2016-09-02T08:42:26.804Z,22.31
2016-09-02T08:43:26.797Z,22.31
2016-09-02T08:44:26.773Z,22.34
2016-09-02T08:45:26.801Z,22.38
2016-09-02T08:46:26.844Z,22.27
2016-09-02T08:47:26.777Z,22.34
2016-09-02T08:48:26.831Z,22.37
2016-09-02T08:49:26.815Z,22.27
2016-09-02T08:51:01.694Z,22.39
2016-09-02T08:51:26.804Z,22.44
2016-09-02T08:53:02.365Z,22.35
2016-09-02T08:53:32.440Z,22.41
2016-09-02T08:54:43.550Z,22.49
2016-09-02T08:55:55.288Z,22.38
2016-09-02T08:57:08.283Z,22.53
2016-09-02T08:58:32.352Z,22.56
2016-09-02T08:59:02.665Z,22.65
2016-09-02T09:00:34.624Z,22.6
2016-09-02T09:01:59.691Z,22.59
2016-09-02T09:03:24.048Z,22.72
2016-09-02T09:04:45.617Z,22.72
2016-09-02T09:06:09.122Z,22.71
2016-09-02T09:07:31.421Z,22.83
2016-09-02T09:08:57.868Z,22.92
2016-09-02T09:10:26.393Z,23.05
2016-09-02T09:11:47.744Z,23.05
2016-09-02T09:13:09.343Z,23.09
2016-09-02T09:14:35.646Z,23.09
2016-09-02T09:15:59.328Z,23.2
2016-09-02T09:17:22.338Z,23.26
2016-09-02T09:18:45.112Z,23.27
2016-09-02T09:20:07.266Z,23.29
2016-09-02T09:21:27.355Z,23.2
2016-09-02T09:22:50.205Z,23.35
2016-09-02T09:24:12.974Z,23.29
2016-09-02T09:25:38.313Z,23.31
2016-09-02T09:27:01.022Z,23.32
2016-09-02T09:28:23.710Z,23.43
2016-09-02T09:29:46.215Z,23.45
2016-09-02T09:31:08.473Z,23.45
2016-09-02T09:32:32.962Z,23.4
2016-09-02T09:33:59.777Z,23.47
2016-09-02T09:35:23.520Z,23.47
2016-09-02T09:36:44.044Z,23.53
2016-09-02T09:37:50.493Z,23.46
2016-09-02T09:39:13.533Z,23.52
2016-09-02T09:40:31.875Z,23.46
2016-09-02T09:41:56.419Z,23.52
2016-09-02T09:43:19.758Z,23.75
2016-09-02T09:44:41.307Z,23.7
2016-09-02T09:46:06.830Z,23.9
2016-09-02T09:47:30.727Z,23.86
2016-09-02T09:48:52.803Z,23.79
2016-09-02T09:50:14.942Z,23.9
2016-09-02T09:51:36.158Z,23.87
2016-09-02T09:52:58.090Z,23.92
2016-09-02T09:54:22.057Z,23.82
2016-09-02T09:55:44.573Z,23.87
2016-09-02T09:57:04.792Z,23.8
2016-09-02T09:58:30.000Z,24.1
2016-09-02T09:59:40.546Z,24
2016-09-02T10:00:56.091Z,24.02
2016-09-02T10:02:31.330Z,24.19
2016-09-02T10:03:59.467Z,23.9
2016-09-02T10:04:40.309Z,24.05
2016-09-02T10:06:07.340Z,24.44
2016-09-02T10:07:26.523Z,24.12
2016-09-02T10:08:43.720Z,24.2
2016-09-02T10:10:02.261Z,24.34
2016-09-02T10:11:19.364Z,24.47
2016-09-02T10:12:36.380Z,24.29
2016-09-02T10:13:54.463Z,24.17
2016-09-02T10:15:08.145Z,24.34
2016-09-02T10:16:26.348Z,24.35
2016-09-02T10:17:42.551Z,24.56
2016-09-02T10:18:59.299Z,24.42
2016-09-02T10:20:13.324Z,24.57
2016-09-02T10:21:29.287Z,24.5
2016-09-02T10:22:46.131Z,24.56
2016-09-02T10:24:01.785Z,24.38
2016-09-02T10:25:19.528Z,24.5
2016-09-02T10:26:34.324Z,24.42
2016-09-02T10:27:52.157Z,24.75
2016-09-02T10:29:08.508Z,24.85
2016-09-02T10:30:28.775Z,24.69
2016-09-02T10:31:44.926Z,24.77
2016-09-02T10:33:00.787Z,24.97
2016-09-02T10:34:18.982Z,24.68
2016-09-02T10:35:38.928Z,24.39
2016-09-02T10:36:55.963Z,24.59
2016-09-02T10:38:13.751Z,24.44
2016-09-02T10:39:34.397Z,24.44
2016-09-02T10:40:58.482Z,24.73
2016-09-02T10:42:18.451Z,24.67
2016-09-02T10:43:39.123Z,24.79
2016-09-02T10:45:02.018Z,24.64
2016-09-02T10:46:23.601Z,24.92
2016-09-02T10:47:42.853Z,24.77
2016-09-02T10:49:02.923Z,24.98
2016-09-02T10:50:26.565Z,24.94
2016-09-02T10:51:47.502Z,25.01
2016-09-02T10:53:10.062Z,25
2016-09-02T10:54:30.109Z,24.95
2016-09-02T10:55:49.623Z,25.12
2016-09-02T10:57:09.994Z,25.28
2016-09-02T10:58:30.970Z,25.02
2016-09-02T10:59:49.743Z,25.15
2016-09-02T11:01:11.571Z,25.12
2016-09-02T11:02:33.584Z,25.13
2016-09-02T11:03:55.149Z,25.15
2016-09-02T11:05:43.639Z,25.37
2016-09-02T11:06:23.630Z,25.38
2016-09-02T11:07:32.688Z,25.25
2016-09-02T11:09:08.674Z,25.25
2016-09-02T11:10:59.700Z,25.28
2016-09-02T11:12:55.077Z,25.37
2016-09-02T11:15:59.040Z,25.37
2016-09-02T11:19:38.073Z,25.42
2016-09-02T11:22:10.018Z,25.31
2016-09-02T11:24:46.822Z,25.24
2016-09-02T11:25:50.840Z,25.46
2016-09-02T11:26:45.634Z,25.35
2016-09-02T11:27:31.121Z,25.3
2016-09-02T11:28:51.466Z,25.27
2016-09-02T11:29:58.298Z,25.22
2016-09-02T11:31:12.259Z,25.27
2016-09-02T11:32:49.859Z,25.39
2016-09-02T11:34:24.198Z,25.24
2016-09-02T11:35:45.668Z,25.25
2016-09-02T11:37:07.518Z,25.25
2016-09-02T11:38:19.920Z,25.28
2016-09-02T11:39:39.815Z,25.01
2016-09-02T11:40:54.063Z,25
2016-09-02T11:42:09.939Z,24.94
2016-09-02T11:43:27.125Z,25.06
2016-09-02T11:44:45.665Z,25.1
2016-09-02T11:46:04.927Z,25.16
2016-09-02T11:47:21.485Z,25.09
2016-09-02T11:48:40.868Z,25.12
2016-09-02T11:50:02.019Z,25.25
2016-09-02T11:51:22.952Z,25.19
2016-09-02T11:52:44.947Z,25.3
2016-09-02T11:54:05.921Z,25.43
2016-09-02T11:55:29.901Z,25.37
2016-09-02T11:56:57.896Z,25.3
2016-09-02T11:58:20.380Z,25.42
2016-09-02T12:00:17.429Z,25.43
2016-09-02T12:01:39.454Z,25.43
2016-09-02T12:03:01.508Z,25.47
2016-09-02T12:04:25.015Z,25.53
2016-09-02T12:05:45.465Z,25.43
2016-09-02T12:07:05.199Z,25.49
2016-09-02T12:08:29.688Z,25.56
2016-09-02T12:09:45.919Z,25.59
2016-09-02T12:11:02.329Z,25.37
2016-09-02T12:12:22.387Z,25.43
2016-09-02T12:13:40.515Z,25.47
2016-09-02T12:14:59.827Z,25.44
2016-09-02T12:16:17.836Z,25.38
2016-09-02T12:17:39.158Z,25.46
2016-09-02T12:18:56.930Z,25.57
2016-09-02T12:20:16.188Z,25.56
2016-09-02T12:21:37.777Z,25.56
2016-09-02T12:22:59.937Z,25.61
2016-09-02T12:24:20.166Z,25.54
2016-09-02T12:25:43.463Z,25.57
2016-09-02T12:27:05.448Z,25.49
2016-09-02T12:28:29.464Z,25.62
2016-09-02T12:29:50.772Z,25.59
2016-09-02T12:31:18.015Z,25.61
2016-09-02T12:32:40.864Z,25.59
2016-09-02T12:34:01.402Z,25.64
2016-09-02T12:35:23.605Z,25.68
2016-09-02T12:36:46.731Z,25.64
2016-09-02T12:38:06.702Z,25.71
2016-09-02T12:39:29.639Z,25.86
2016-09-02T12:40:51.362Z,25.77
2016-09-02T12:42:11.886Z,25.83
2016-09-02T12:43:30.022Z,25.87
2016-09-02T12:44:51.978Z,25.84
2016-09-02T12:46:14.790Z,25.91
2016-09-02T12:47:39.394Z,25.77
2016-09-02T12:49:02.402Z,25.86
2016-09-02T12:50:26.341Z,25.86
2016-09-02T12:51:47.087Z,25.86
2016-09-02T12:53:12.229Z,25.84
2016-09-02T12:54:36.021Z,25.84
2016-09-02T12:55:11.561Z,25.87
2016-09-02T12:56:24.003Z,25.82
2016-09-02T12:57:47.368Z,25.89
2016-09-02T12:59:09.547Z,25.84
2016-09-02T13:00:33.434Z,25.83
2016-09-02T13:01:55.142Z,25.89
2016-09-02T13:03:16.482Z,25.89
2016-09-02T13:04:36.206Z,25.93
2016-09-02T13:05:59.392Z,25.98
2016-09-02T13:07:19.685Z,25.9
2016-09-02T13:08:41.323Z,25.91
2016-09-02T13:09:59.095Z,25.89
2016-09-02T13:11:20.318Z,25.87
2016-09-02T13:12:41.516Z,25.9
2016-09-02T13:14:02.883Z,25.82
2016-09-02T13:15:24.194Z,25.91
2016-09-02T13:16:47.361Z,25.86
2016-09-02T13:18:08.906Z,25.83
2016-09-02T13:19:29.717Z,25.77
2016-09-02T13:20:39.073Z,26.04
2016-09-02T13:21:15.744Z,25.91
2016-09-02T13:22:15.722Z,25.84
2016-09-02T13:23:15.708Z,25.89
2016-09-02T13:24:15.706Z,25.91
2016-09-02T13:25:15.720Z,25.94
2016-09-02T13:26:15.720Z,25.97
2016-09-02T13:27:15.701Z,26.09
2016-09-02T13:28:15.722Z,25.79
2016-09-02T13:29:15.749Z,25.91
2016-09-02T13:30:15.700Z,25.98
2016-09-02T13:31:15.689Z,25.99
2016-09-02T13:32:15.731Z,25.9
2016-09-02T13:33:15.714Z,25.91
2016-09-02T13:34:15.750Z,25.99
2016-09-02T13:35:15.842Z,26.01
2016-09-02T13:36:15.714Z,25.98
2016-09-02T13:37:15.744Z,25.87
2016-09-02T13:38:15.718Z,25.94
2016-09-02T13:39:15.752Z,25.89
2016-09-02T13:40:15.764Z,26.05
2016-09-02T13:41:15.772Z,25.93
2016-09-02T13:42:15.763Z,25.94
2016-09-02T13:43:15.729Z,25.91
2016-09-02T13:44:15.721Z,25.89
2016-09-02T13:45:15.744Z,25.99
2016-09-02T13:46:15.744Z,26.02
2016-09-02T13:47:15.825Z,25.93
2016-09-02T13:48:15.820Z,25.98
2016-09-02T13:49:15.844Z,25.93
2016-09-02T13:50:33.829Z,25.94
2016-09-02T13:51:21.873Z,26.01
2016-09-02T13:52:23.024Z,26.01
2016-09-02T13:53:15.731Z,25.99
2016-09-02T13:54:15.820Z,25.93
2016-09-02T13:55:15.792Z,26.15
2016-09-02T13:56:15.732Z,26.18
2016-09-02T13:57:15.852Z,25.97
2016-09-02T13:58:15.743Z,26.01
2016-09-02T13:59:15.765Z,26.04
2016-09-02T14:00:15.755Z,26.04
2016-09-02T14:01:15.761Z,26.21
2016-09-02T14:02:15.753Z,26.2
2016-09-02T14:03:15.731Z,26.27
2016-09-02T14:04:16.152Z,26.29
2016-09-02T14:05:15.721Z,26.27
2016-09-02T14:06:15.781Z,26.27
2016-09-02T14:07:15.745Z,26.22